Time;durP1;ratioP1;P1;durP2;ratioP2;P2;SDS_P1;SDS_P2;PMS_P1;PMS_P2;Temp;Humidity;BMP_temperature;BMP_pressure;BME280_temperature;BME280_humidity;BME280_pressure;Samples;Min_cycle;Max_cycle;Signal;HPM_P1;HPM_P2
2021/05/19 00:00:59;;;;;;;23.67;6.00;;;16.10;90.10;;;;;;5092039;28;20043;-69
2021/05/19 00:04:04;;;;;;;20.67;5.90;;;16.00;90.10;;;;;;5092544;28;20498;-69
2021/05/19 00:07:08;;;;;;;21.90;5.68;;;16.00;90.20;;;;;;5092641;28;20055;-69
2021/05/19 00:10:12;;;;;;;18.70;5.07;;;16.00;90.40;;;;;;5092187;28;20399;-69
2021/05/19 00:13:16;;;;;;;18.15;5.00;;;16.00;89.90;;;;;;5092462;28;20066;-68
2021/05/19 00:16:21;;;;;;;17.23;4.85;;;16.00;89.70;;;;;;5091703;28;20055;-69
2021/05/19 00:19:25;;;;;;;18.23;4.60;;;16.00;89.50;;;;;;5092244;28;20059;-69
2021/05/19 00:22:29;;;;;;;21.85;4.80;;;16.10;89.00;;;;;;5091962;28;20043;-70
2021/05/19 00:25:33;;;;;;;23.20;4.90;;;16.10;88.70;;;;;;5092240;28;20035;-69
2021/05/19 00:28:37;;;;;;;19.98;4.93;;;16.20;88.10;;;;;;5092177;28;20047;-68
2021/05/19 00:31:44;;;;;;;16.83;4.45;;;16.10;87.90;;;;;;5092074;28;20050;-68
2021/05/19 00:34:49;;;;;;;13.90;4.80;;;16.10;87.60;;;;;;5091708;28;20047;-68
2021/05/19 00:37:54;;;;;;;15.98;3.88;;;16.10;87.10;;;;;;5092062;28;20039;-69
2021/05/19 00:40:58;;;;;;;12.80;3.88;;;16.00;87.00;;;;;;5091697;28;20150;-68
2021/05/19 00:44:09;;;;;;;16.42;4.30;;;16.00;86.90;;;;;;5091888;28;20047;-69
2021/05/19 00:47:39;;;;;;;20.05;4.30;;;16.00;86.60;;;;;;5091324;28;20039;-68
2021/05/19 00:50:43;;;;;;;16.85;3.72;;;15.90;86.70;;;;;;5091469;28;20046;-70
2021/05/19 00:53:47;;;;;;;14.60;4.25;;;15.80;87.10;;;;;;5090815;28;20031;-68
2021/05/19 00:56:52;;;;;;;15.75;4.57;;;15.80;87.50;;;;;;5079120;28;20054;-69
2021/05/19 00:59:56;;;;;;;11.50;3.75;;;15.70;87.80;;;;;;5090672;28;20063;-69
2021/05/19 01:03:06;;;;;;;15.90;4.40;;;15.60;88.40;;;;;;5090635;28;20047;-70
2021/05/19 01:06:16;;;;;;;22.02;4.90;;;15.30;89.40;;;;;;5091664;28;20394;-69
2021/05/19 01:09:35;;;;;;;16.95;4.15;;;15.10;90.20;;;;;;5091523;28;20038;-68
2021/05/19 01:12:39;;;;;;;29.63;6.03;;;15.00;91.10;;;;;;5091469;28;20035;-68
2021/05/19 01:15:44;;;;;;;42.95;9.68;;;15.20;90.50;;;;;;5091283;28;20521;-69
2021/05/19 01:18:49;;;;;;;59.35;11.75;;;15.20;90.50;;;;;;5091517;28;20046;-69
2021/05/19 01:21:56;;;;;;;57.35;12.32;;;15.10;90.50;;;;;;5091226;28;20063;-68
2021/05/19 01:25:01;;;;;;;76.03;14.43;;;15.20;90.60;;;;;;5091245;28;20039;-68
2021/05/19 01:28:09;;;;;;;73.90;15.02;;;15.20;90.40;;;;;;5090416;28;20047;-68
2021/05/19 01:31:13;;;;;;;87.38;18.10;;;15.20;90.60;;;;;;5090578;28;20102;-69
2021/05/19 01:34:19;;;;;;;105.75;19.77;;;15.10;90.80;;;;;;5092211;28;20055;-68
2021/05/19 01:37:24;;;;;;;101.15;20.23;;;15.20;90.70;;;;;;5090568;28;20039;-69
2021/05/19 01:40:32;;;;;;;96.70;18.02;;;15.30;90.40;;;;;;5091152;28;20051;-67
2021/05/19 01:43:38;;;;;;;75.80;15.02;;;15.30;90.40;;;;;;5090394;28;20043;-68
2021/05/19 01:47:07;;;;;;;72.85;14.48;;;15.40;90.10;;;;;;5092394;28;20502;-68
2021/05/19 01:50:26;;;;;;;82.03;16.75;;;15.50;89.40;;;;;;5089959;28;20517;-68
2021/05/19 01:53:33;;;;;;;82.70;17.00;;;15.50;89.20;;;;;;5091054;28;20651;-68
2021/05/19 01:56:39;;;;;;;99.53;18.83;;;15.50;89.10;;;;;;5091039;28;20051;-69
2021/05/19 01:59:44;;;;;;;97.13;19.17;;;15.50;89.30;;;;;;5090669;28;20395;-69
2021/05/19 02:03:05;;;;;;;108.95;17.02;;;15.40;89.20;;;;;;5091040;28;20039;-68
2021/05/19 02:06:17;;;;;;;95.57;18.13;;;15.40;89.40;;;;;;5090234;28;20043;-69
2021/05/19 02:09:26;;;;;;;114.75;21.60;;;15.40;89.10;;;;;;5079042;28;20055;-68
2021/05/19 02:12:33;;;;;;;129.60;23.52;;;15.20;90.00;;;;;;5090071;28;20043;-69
2021/05/19 02:15:39;;;;;;;125.03;22.90;;;15.20;90.00;;;;;;5089920;28;20055;-69
2021/05/19 02:18:27;;;;;;;130.90;23.40;;;15.30;90.00;;;;;;5090929;28;20035;-69
2021/05/19 02:21:31;;;;;;;122.50;21.90;;;15.30;90.00;;;;;;5090517;28;20039;-68
2021/05/19 02:24:44;;;;;;;123.15;21.40;;;15.30;89.90;;;;;;5077870;28;20391;-69
2021/05/19 02:27:50;;;;;;;100.78;18.80;;;15.20;90.10;;;;;;5090573;28;20035;-69
2021/05/19 02:30:57;;;;;;;104.50;19.83;;;15.10;90.20;;;;;;5090049;28;20513;-69
2021/05/19 02:34:04;;;;;;;93.70;17.85;;;14.90;90.30;;;;;;5089341;28;20160;-68
2021/05/19 02:37:11;;;;;;;108.40;18.98;;;14.80;90.70;;;;;;5090525;28;20047;-67
2021/05/19 02:40:16;;;;;;;112.40;19.05;;;14.90;90.70;;;;;;5090592;28;20047;-68
2021/05/19 02:43:20;;;;;;;86.35;16.98;;;14.90;90.50;;;;;;5093132;28;20043;-69
2021/05/19 02:46:24;;;;;;;61.83;14.23;;;14.60;91.10;;;;;;5094481;28;20047;-69
2021/05/19 02:49:28;;;;;;;85.57;14.93;;;14.60;91.50;;;;;;5094024;28;20035;-68
2021/05/19 02:52:33;;;;;;;59.35;13.88;;;14.80;91.50;;;;;;5093755;28;20395;-69
2021/05/19 02:55:37;;;;;;;59.85;12.73;;;14.80;91.20;;;;;;5092864;28;20051;-68
2021/05/19 02:58:41;;;;;;;56.10;12.13;;;14.80;91.20;;;;;;5093708;28;20478;-69
2021/05/19 03:01:45;;;;;;;65.88;12.88;;;14.80;91.10;;;;;;5093988;28;20110;-68
2021/05/19 03:04:52;;;;;;;71.78;14.23;;;14.90;90.70;;;;;;5093548;28;20043;-69
2021/05/19 03:07:57;;;;;;;62.72;11.98;;;14.80;90.80;;;;;;5093928;28;20391;-69
2021/05/19 03:11:02;;;;;;;73.57;13.35;;;14.70;90.90;;;;;;5093728;28;20039;-69
2021/05/19 03:14:06;;;;;;;60.17;12.88;;;14.70;91.00;;;;;;5094010;28;20498;-69
2021/05/19 03:17:11;;;;;;;63.42;13.88;;;14.70;90.90;;;;;;5093446;28;20054;-69
2021/05/19 03:20:15;;;;;;;51.03;10.18;;;14.50;91.00;;;;;;5093915;28;20046;-68
2021/05/19 03:23:20;;;;;;;43.83;9.73;;;14.40;91.10;;;;;;5093777;28;20114;-68
2021/05/19 03:26:24;;;;;;;55.38;10.52;;;14.40;91.40;;;;;;5093283;28;20051;-68
2021/05/19 03:29:28;;;;;;;43.13;10.77;;;14.50;91.40;;;;;;5093922;28;20039;-68
2021/05/19 03:32:32;;;;;;;52.97;11.27;;;14.40;91.50;;;;;;5093468;28;20055;-69
2021/05/19 03:35:36;;;;;;;61.38;12.80;;;14.30;92.00;;;;;;5094129;28;20071;-70
2021/05/19 03:38:40;;;;;;;60.08;12.88;;;14.40;92.10;;;;;;5094014;28;20039;-68
2021/05/19 03:41:44;;;;;;;65.57;13.48;;;14.50;91.80;;;;;;5093547;28;20047;-69
2021/05/19 03:44:48;;;;;;;68.97;15.13;;;14.50;91.80;;;;;;5093951;28;20051;-69
2021/05/19 03:47:53;;;;;;;54.63;13.85;;;14.60;91.70;;;;;;5093068;28;20069;-68
2021/05/19 03:50:58;;;;;;;57.83;12.25;;;14.60;91.60;;;;;;5093453;28;20047;-68
2021/05/19 03:54:04;;;;;;;43.60;10.20;;;14.70;91.20;;;;;;5093178;28;20047;-68
2021/05/19 03:57:08;;;;;;;41.97;10.52;;;14.70;90.90;;;;;;5092945;28;20067;-69
2021/05/19 04:00:17;;;;;;;34.00;7.07;;;14.60;90.80;;;;;;5093558;28;20039;-69
2021/05/19 04:03:21;;;;;;;27.50;8.13;;;14.50;91.10;;;;;;5093573;28;20059;-69
2021/05/19 04:06:25;;;;;;;39.65;9.95;;;14.40;91.30;;;;;;5092660;28;20043;-68
2021/05/19 04:09:28;;;;;;;83.75;24.85;;;14.30;91.70;;;;;;5091687;28;20043;-68
2021/05/19 04:12:32;;;;;;;131.32;37.00;;;14.40;91.80;;;;;;5093119;28;20501;-68
2021/05/19 04:15:37;;;;;;;166.30;45.53;;;14.40;91.60;;;;;;5093057;28;20051;-69
2021/05/19 04:18:42;;;;;;;171.27;46.80;;;14.20;92.30;;;;;;5093266;28;20039;-68
2021/05/19 04:21:46;;;;;;;172.23;52.90;;;14.30;92.50;;;;;;5093132;28;20047;-68
2021/05/19 04:24:50;;;;;;;213.60;68.50;;;14.40;92.20;;;;;;5093416;28;20047;-70
2021/05/19 04:27:55;;;;;;;217.30;82.75;;;14.50;92.00;;;;;;5092848;28;20039;-70
2021/05/19 04:30:59;;;;;;;202.10;75.82;;;14.40;92.30;;;;;;5093409;28;20043;-69
2021/05/19 04:34:03;;;;;;;197.80;70.03;;;14.40;92.70;;;;;;5091712;28;20059;-70
2021/05/19 04:37:07;;;;;;;181.75;64.10;;;14.50;92.50;;;;;;5092863;28;20047;-70
2021/05/19 04:40:12;;;;;;;202.98;60.25;;;14.70;92.50;;;;;;5092705;28;20038;-70
2021/05/19 04:43:18;;;;;;;193.45;64.07;;;15.10;91.60;;;;;;5092886;28;20047;-69
2021/05/19 04:46:22;;;;;;;219.60;73.45;;;15.40;91.20;;;;;;5092977;28;20039;-69
2021/05/19 04:49:26;;;;;;;220.35;72.25;;;15.80;90.30;;;;;;5093040;28;20043;-69
2021/05/19 04:52:34;;;;;;;223.00;77.93;;;16.60;87.90;;;;;;5093705;28;20035;-67
2021/05/19 04:55:39;;;;;;;210.48;84.47;;;16.70;86.80;;;;;;5092724;28;20055;-69
2021/05/19 04:58:47;;;;;;;225.27;91.57;;;16.70;87.20;;;;;;5092758;28;20395;-69
2021/05/19 05:01:50;;;;;;;226.35;96.55;;;16.50;87.90;;;;;;5092936;28;20201;-70
2021/05/19 05:04:54;;;;;;;229.43;102.90;;;16.10;90.00;;;;;;5092156;28;20062;-69
2021/05/19 05:07:59;;;;;;;225.48;100.60;;;16.00;91.10;;;;;;5091527;28;20059;-68
2021/05/19 05:11:03;;;;;;;227.93;99.78;;;16.30;90.60;;;;;;5092577;28;20055;-70
2021/05/19 05:14:07;;;;;;;120.25;54.72;;;16.80;90.30;;;;;;5091533;28;20054;-65
2021/05/19 05:17:11;;;;;;;129.82;55.97;;;17.30;91.00;;;;;;5091531;28;20059;-66
2021/05/19 05:20:15;;;;;;;133.55;60.10;;;18.00;90.10;;;;;;5091403;28;20501;-65
2021/05/19 05:23:19;;;;;;;149.15;60.88;;;18.50;87.90;;;;;;5091455;28;20047;-64
2021/05/19 05:26:22;;;;;;;126.28;55.53;;;18.50;83.60;;;;;;5091423;28;20043;-63
2021/05/19 05:29:26;;;;;;;128.50;54.35;;;18.20;86.00;;;;;;5091336;28;20387;-63
2021/05/19 05:32:30;;;;;;;104.95;46.10;;;18.10;86.40;;;;;;5091113;28;20506;-64
2021/05/19 05:35:34;;;;;;;105.80;45.78;;;18.10;86.90;;;;;;5091128;28;20051;-63
2021/05/19 05:38:38;;;;;;;92.18;41.42;;;17.90;87.70;;;;;;5078811;28;20062;-64
2021/05/19 05:41:42;;;;;;;117.13;47.25;;;17.60;88.60;;;;;;5090930;28;20043;-64
2021/05/19 05:44:46;;;;;;;96.55;39.03;;;17.30;90.10;;;;;;5090091;28;20055;-63
2021/05/19 05:47:50;;;;;;;99.07;42.20;;;17.10;90.70;;;;;;5090842;28;20039;-64
2021/05/19 05:50:54;;;;;;;140.70;55.72;;;17.00;91.20;;;;;;5090095;28;20544;-64
2021/05/19 05:53:58;;;;;;;158.75;66.22;;;17.00;91.20;;;;;;5090010;28;20043;-64
2021/05/19 05:57:03;;;;;;;164.05;75.88;;;16.90;91.00;;;;;;5089389;28;20055;-63
2021/05/19 06:00:10;;;;;;;161.20;70.55;;;16.90;91.20;;;;;;5090959;28;20391;-63
2021/05/19 06:03:17;;;;;;;130.80;54.65;;;16.80;91.30;;;;;;5090804;28;20043;-63
2021/05/19 06:06:21;;;;;;;136.27;54.15;;;16.90;91.60;;;;;;5090779;28;20524;-63
2021/05/19 06:09:25;;;;;;;120.20;49.00;;;17.00;91.50;;;;;;5090495;28;20052;-66
2021/05/19 06:12:28;;;;;;;124.00;51.50;;;17.10;91.50;;;;;;5090207;28;20063;-62
2021/05/19 06:15:32;;;;;;;137.77;56.00;;;17.20;91.30;;;;;;5092177;28;20391;-64
2021/05/19 06:18:42;;;;;;;139.32;61.50;;;17.40;91.00;;;;;;5094454;28;20043;-66
2021/05/19 06:21:46;;;;;;;136.18;62.28;;;17.50;90.80;;;;;;5094885;28;20039;-64
2021/05/19 06:24:50;;;;;;;175.20;68.47;;;17.40;90.40;;;;;;5094645;28;20494;-62
2021/05/19 06:27:55;;;;;;;157.05;62.60;;;17.50;89.50;;;;;;5093720;28;20043;-65
2021/05/19 06:30:59;;;;;;;156.82;62.65;;;17.40;89.90;;;;;;5094314;28;20039;-65
2021/05/19 06:34:03;;;;;;;152.63;60.45;;;17.50;90.10;;;;;;5094158;28;20055;-62
2021/05/19 06:37:08;;;;;;;140.07;54.47;;;17.60;90.00;;;;;;5093698;28;20055;-62
2021/05/19 06:40:12;;;;;;;125.40;50.92;;;17.70;89.30;;;;;;5094477;28;20051;-63
2021/05/19 06:43:16;;;;;;;121.15;48.28;;;17.70;89.70;;;;;;5094461;28;20086;-64
2021/05/19 06:46:20;;;;;;;116.90;45.85;;;17.80;88.90;;;;;;5094563;28;20055;-63
2021/05/19 06:49:24;;;;;;;83.75;32.78;;;17.90;89.20;;;;;;5094168;28;20047;-63
2021/05/19 06:52:30;;;;;;;70.10;25.02;;;18.00;88.00;;;;;;5094045;28;20043;-63
2021/05/19 06:55:40;;;;;;;60.38;21.05;;;18.00;87.60;;;;;;5081679;28;20067;-62
2021/05/19 06:58:44;;;;;;;45.05;17.00;;;18.10;88.00;;;;;;5093651;28;20039;-63
2021/05/19 07:01:49;;;;;;;63.97;22.80;;;18.20;87.80;;;;;;5093694;28;20059;-65
2021/05/19 07:04:53;;;;;;;49.50;17.58;;;18.30;87.80;;;;;;5093954;28;20047;-63
2021/05/19 07:07:57;;;;;;;52.88;17.23;;;18.40;86.70;;;;;;5093525;28;20055;-63
2021/05/19 07:11:01;;;;;;;50.50;15.18;;;18.30;87.30;;;;;;5081031;28;20043;-61
2021/05/19 07:14:13;;;;;;;64.35;14.85;;;18.20;87.90;;;;;;5093607;28;20062;-63
2021/05/19 07:17:17;;;;;;;;;;;18.20;88.80;;;;;;5093182;28;20047;-61
2021/05/19 07:20:21;;;;;;;40.80;13.25;;;18.20;89.30;;;;;;5093629;28;19915;-64
2021/05/19 07:23:25;;;;;;;33.78;10.82;;;18.20;89.30;;;;;;5093766;28;20051;-63
2021/05/19 07:26:29;;;;;;;36.88;10.95;;;18.30;89.00;;;;;;5092794;28;20055;-63
2021/05/19 07:29:33;;;;;;;33.17;12.15;;;18.50;88.40;;;;;;5092553;28;20399;-63
2021/05/19 07:32:37;;;;;;;29.45;9.80;;;19.10;87.50;;;;;;5092919;28;20126;-65
2021/05/19 07:35:43;;;;;;;22.77;4.50;;;19.80;83.90;;;;;;5093283;28;20051;-64
2021/05/19 07:38:48;;;;;;;22.63;3.25;;;20.50;79.40;;;;;;5093217;28;20505;-63
2021/05/19 07:41:52;;;;;;;21.60;2.75;;;21.10;75.00;;;;;;5093320;28;20046;-64
2021/05/19 07:44:57;;;;;;;13.70;2.33;;;21.60;73.50;;;;;;5093146;28;20039;-63
2021/05/19 07:48:01;;;;;;;14.52;3.00;;;21.90;70.00;;;;;;5092858;28;20391;-63
2021/05/19 07:51:06;;;;;;;13.65;3.15;;;21.70;70.80;;;;;;5092764;28;20043;-64
2021/05/19 07:54:14;;;;;;;13.07;2.00;;;21.50;68.40;;;;;;5092561;28;20039;-64
2021/05/19 08:00:42;;;;;;;19.58;3.08;;;21.10;71.70;;;;;;5092771;28;20047;-62
2021/05/19 08:03:46;;;;;;;12.40;2.40;;;21.00;73.10;;;;;;5092072;28;20075;-64
2021/05/19 08:06:50;;;;;;;12.57;2.30;;;20.90;73.80;;;;;;5091650;28;20510;-65
2021/05/19 08:09:54;;;;;;;28.40;3.25;;;20.80;72.80;;;;;;5092790;28;20505;-64
2021/05/19 08:12:58;;;;;;;17.58;2.63;;;20.60;73.40;;;;;;5092410;28;20039;-65
2021/05/19 08:16:02;;;;;;;12.43;2.10;;;20.60;72.90;;;;;;5092152;28;20055;-63
2021/05/19 08:19:06;;;;;;;6.65;1.75;;;20.60;72.30;;;;;;5092318;28;20505;-63
2021/05/19 08:22:13;;;;;;;16.42;2.55;;;20.70;71.60;;;;;;5092448;28;20062;-64
2021/05/19 08:25:18;;;;;;;15.82;2.53;;;20.80;68.20;;;;;;5091971;28;20575;-64
2021/05/19 08:28:25;;;;;;;24.80;3.03;;;20.90;70.00;;;;;;5091867;28;20101;-64
2021/05/19 08:31:29;;;;;;;15.50;2.30;;;20.90;70.10;;;;;;5091917;28;20039;-63
2021/05/19 08:34:34;;;;;;;21.00;2.40;;;21.10;71.10;;;;;;5079588;28;20051;-64
2021/05/19 08:37:38;;;;;;;15.07;2.53;;;21.20;70.40;;;;;;5079082;28;20055;-64
2021/05/19 08:40:43;;;;;;;17.45;2.58;;;21.30;70.60;;;;;;5092202;28;20043;-63
2021/05/19 08:43:47;;;;;;;17.42;2.35;;;21.30;71.30;;;;;;5091302;28;20054;-65
2021/05/19 08:46:56;;;;;;;14.38;2.50;;;21.40;69.50;;;;;;5092188;28;20043;-64
2021/05/19 08:50:02;;;;;;;10.90;2.28;;;21.40;68.70;;;;;;5091766;28;20039;-65
2021/05/19 08:53:09;;;;;;;15.43;2.70;;;21.70;69.50;;;;;;5092120;28;20047;-65
2021/05/19 08:56:13;;;;;;;14.50;2.28;;;21.90;67.40;;;;;;5092039;28;20051;-63
2021/05/19 08:59:19;;;;;;;12.23;2.50;;;22.10;67.30;;;;;;5092277;28;20047;-63
2021/05/19 09:02:24;;;;;;;18.50;2.65;;;22.30;67.40;;;;;;5092094;28;20043;-63
2021/05/19 09:05:32;;;;;;;9.10;2.30;;;22.50;66.40;;;;;;5091502;28;20039;-64
2021/05/19 09:08:38;;;;;;;14.48;2.75;;;22.70;63.90;;;;;;5091797;28;20050;-64
2021/05/19 09:12:07;;;;;;;9.70;2.20;;;22.80;64.40;;;;;;5091707;28;20043;-64
2021/05/19 09:15:13;;;;;;;11.80;1.98;;;22.80;64.30;;;;;;5092643;28;20040;-66
2021/05/19 09:18:17;;;;;;;12.57;2.10;;;22.90;63.20;;;;;;5091156;28;20063;-64
2021/05/19 09:21:32;;;;;;;19.38;2.85;;;22.90;62.40;;;;;;5091764;28;20387;-64
2021/05/19 09:24:41;;;;;;;12.10;2.60;;;22.90;64.00;;;;;;5091331;28;20055;-63
2021/05/19 09:27:48;;;;;;;19.98;2.65;;;22.80;63.10;;;;;;5091068;28;20616;-63
2021/05/19 09:30:51;;;;;;;8.23;1.85;;;22.90;62.10;;;;;;5090629;28;20048;-65
2021/05/19 09:33:56;;;;;;;17.58;2.72;;;22.90;61.70;;;;;;5089398;28;20044;-64
2021/05/19 09:37:13;;;;;;;10.35;1.92;;;23.00;60.30;;;;;;5090928;28;20053;-63
2021/05/19 09:40:17;;;;;;;10.90;1.58;;;22.90;59.40;;;;;;5091291;28;20059;-64
2021/05/19 09:43:32;;;;;;;16.73;2.03;;;22.90;60.00;;;;;;5091271;28;20047;-63
2021/05/19 09:46:45;;;;;;;23.52;2.92;;;22.80;60.10;;;;;;5091101;28;20047;-64
2021/05/19 09:49:57;;;;;;;11.52;2.00;;;22.80;62.80;;;;;;5092148;28;20047;-63
2021/05/19 09:53:02;;;;;;;8.98;1.92;;;22.90;63.70;;;;;;5094590;28;20035;-65
2021/05/19 09:56:06;;;;;;;21.83;3.40;;;23.00;61.50;;;;;;5095485;28;20044;-65
2021/05/19 09:59:20;;;;;;;10.32;2.05;;;22.80;63.30;;;;;;5094923;28;20047;-65
2021/05/19 10:02:30;;;;;;;13.55;2.10;;;22.90;64.30;;;;;;5095042;28;20047;-66
2021/05/19 10:05:45;;;;;;;10.10;1.98;;;23.00;62.80;;;;;;5095053;28;20039;-65
2021/05/19 10:08:50;;;;;;;10.50;2.28;;;23.00;62.40;;;;;;5094331;28;20043;-65
2021/05/19 10:11:58;;;;;;;12.95;2.55;;;23.10;63.30;;;;;;5093816;28;20047;-63
2021/05/19 10:15:12;;;;;;;19.67;2.00;;;23.20;61.60;;;;;;5093766;28;20047;-63
2021/05/19 10:18:19;;;;;;;16.63;2.60;;;23.40;59.20;;;;;;5095009;28;20059;-64
2021/05/19 10:21:31;;;;;;;18.05;2.78;;;23.60;58.10;;;;;;5095043;28;20055;-63
2021/05/19 10:25:00;;;;;;;20.88;2.33;;;23.70;58.70;;;;;;5093948;28;20043;-65
2021/05/19 10:28:13;;;;;;;10.18;1.75;;;23.80;59.70;;;;;;5094971;28;20051;-65
2021/05/19 10:31:31;;;;;;;19.90;2.17;;;23.90;59.20;;;;;;5094879;28;20503;-63
2021/05/19 10:34:44;;;;;;;14.98;1.95;;;24.00;57.20;;;;;;5094436;28;20051;-66
2021/05/19 10:37:50;;;;;;;41.00;2.75;;;24.00;56.20;;;;;;5094438;28;20510;-63
2021/05/19 10:40:56;;;;;;;14.60;2.30;;;23.90;58.20;;;;;;5093790;28;20035;-65
2021/05/19 10:44:06;;;;;;;13.00;2.00;;;23.80;57.30;;;;;;5094537;28;20067;-62
2021/05/19 10:47:25;;;;;;;15.80;2.20;;;23.70;57.70;;;;;;5093248;28;20543;-66
2021/05/19 10:50:34;;;;;;;11.63;1.80;;;23.70;59.20;;;;;;5094180;28;20063;-67
2021/05/19 10:57:36;;;;;;;12.75;2.22;;;23.70;54.90;;;;;;5093017;28;20055;-65
2021/05/19 11:00:43;;;;;;;16.35;2.38;;;23.60;56.20;;;;;;5093064;28;20186;-64
2021/05/19 11:04:20;;;;;;;12.07;2.15;;;23.50;57.00;;;;;;5091325;28;20113;-64
2021/05/19 11:07:24;;;;;;;7.50;1.85;;;23.60;56.40;;;;;;5094066;28;20113;-64
2021/05/19 11:10:30;;;;;;;24.50;1.95;;;23.60;56.80;;;;;;5094035;28;20040;-64
2021/05/19 11:13:55;;;;;;;16.52;2.75;;;23.50;57.50;;;;;;5094105;28;20039;-64
2021/05/19 11:20:08;;;;;;;14.18;3.05;;;23.40;56.10;;;;;;5094042;28;20043;-64
2021/05/19 11:23:13;;;;;;;10.45;1.63;;;23.40;58.60;;;;;;5093907;28;20051;-64
2021/05/19 11:26:17;;;;;;;6.15;1.80;;;23.40;57.50;;;;;;5093887;28;20039;-64
2021/05/19 11:29:22;;;;;;;16.40;2.33;;;23.40;58.40;;;;;;5093303;28;20047;-63
2021/05/19 11:32:34;;;;;;;22.95;2.25;;;23.30;59.50;;;;;;5093491;28;20055;-64
2021/05/19 11:35:39;;;;;;;15.02;2.53;;;23.30;60.70;;;;;;5092564;28;20047;-64
2021/05/19 11:38:49;;;;;;;19.25;2.60;;;23.20;62.60;;;;;;5092752;28;20047;-66
2021/05/19 11:42:09;;;;;;;13.98;2.65;;;23.10;63.40;;;;;;5093568;28;20043;-64
2021/05/19 11:45:13;;;;;;;19.03;2.90;;;23.00;63.90;;;;;;5092849;28;20043;-63
2021/05/19 11:48:28;;;;;;;17.85;2.75;;;23.00;65.50;;;;;;5093194;28;20043;-65
2021/05/19 11:51:32;;;;;;;17.33;2.60;;;23.00;67.20;;;;;;5093109;28;20039;-65
2021/05/19 11:54:43;;;;;;;16.92;2.65;;;23.00;67.70;;;;;;5093017;28;20047;-66
2021/05/19 11:57:47;;;;;;;11.10;2.25;;;23.00;68.80;;;;;;5092792;28;20501;-64
2021/05/19 12:01:07;;;;;;;21.67;5.43;;;23.00;66.80;;;;;;5092695;28;20047;-65
2021/05/19 12:04:17;;;;;;;14.73;2.40;;;23.00;68.10;;;;;;5091856;28;20039;-64
2021/05/19 12:07:37;;;;;;;13.77;2.73;;;23.00;68.40;;;;;;5092760;28;20039;-65
2021/05/19 12:10:43;;;;;;;17.50;2.60;;;23.10;68.90;;;;;;5093039;28;20621;-65
2021/05/19 12:13:56;;;;;;;12.20;2.10;;;23.10;69.20;;;;;;5091778;28;20043;-64
2021/05/19 12:17:04;;;;;;;16.98;2.40;;;23.10;69.50;;;;;;5092314;28;20055;-64
2021/05/19 12:20:23;;;;;;;22.75;2.60;;;23.00;69.60;;;;;;5092643;28;20051;-64
2021/05/19 12:23:28;;;;;;;14.57;2.38;;;22.90;69.20;;;;;;5092430;28;20043;-64
2021/05/19 12:26:33;;;;;;;9.27;2.15;;;22.80;69.40;;;;;;5092446;28;20054;-65
2021/05/19 12:29:48;;;;;;;15.13;2.63;;;22.70;70.00;;;;;;5092049;28;20036;-64
2021/05/19 12:33:02;;;;;;;22.90;2.78;;;22.70;70.50;;;;;;5091347;28;20055;-63
2021/05/19 12:36:07;;;;;;;11.13;2.35;;;22.80;71.60;;;;;;5092210;28;20047;-64
2021/05/19 12:39:11;;;;;;;18.65;2.45;;;22.80;71.80;;;;;;5092122;28;20051;-62
2021/05/19 12:42:20;;;;;;;11.50;2.88;;;22.80;71.90;;;;;;5091212;28;20047;-63
2021/05/19 12:45:29;;;;;;;14.52;2.30;;;22.70;71.30;;;;;;5091058;28;20047;-63
2021/05/19 12:48:37;;;;;;;9.82;2.03;;;22.70;72.00;;;;;;5091148;28;20043;-64
2021/05/19 12:52:18;;;;;;;15.98;2.60;;;22.60;72.60;;;;;;5091567;28;20047;-64
2021/05/19 12:55:22;;;;;;;16.33;2.35;;;22.70;73.20;;;;;;5091960;28;20055;-64
2021/05/19 12:58:29;;;;;;;12.80;2.08;;;22.60;72.50;;;;;;5091748;28;20067;-63
2021/05/19 13:01:46;;;;;;;11.68;2.13;;;22.60;73.50;;;;;;5092117;28;20110;-63
2021/05/19 13:04:53;;;;;;;13.63;2.40;;;22.70;74.50;;;;;;5091541;28;20039;-68
2021/05/19 13:07:58;;;;;;;14.20;2.40;;;22.70;73.20;;;;;;5091372;28;20039;-66
2021/05/19 13:11:16;;;;;;;11.73;1.63;;;22.70;72.60;;;;;;5090695;28;20043;-63
2021/05/19 13:14:35;;;;;;;16.63;2.10;;;22.70;71.60;;;;;;5091602;28;20039;-65
2021/05/19 13:17:56;;;;;;;12.05;2.17;;;22.70;73.00;;;;;;5091392;28;20051;-65
2021/05/19 13:21:09;;;;;;;8.93;1.67;;;22.70;73.10;;;;;;5079002;28;20039;-65
2021/05/19 13:24:18;;;;;;;24.70;2.03;;;22.80;70.40;;;;;;5090145;28;20285;-64
2021/05/19 13:27:33;;;;;;;11.85;2.08;;;22.80;72.60;;;;;;5091172;28;20038;-64
2021/05/19 13:30:37;;;;;;;17.75;2.63;;;22.70;74.20;;;;;;5091140;28;20046;-64
2021/05/19 13:36:47;;;;;;;12.18;2.00;;;22.60;71.20;;;;;;5091005;28;20064;-62
2021/05/19 13:39:53;;;;;;;12.07;2.42;;;22.50;71.90;;;;;;5090863;28;20043;-64
2021/05/19 13:42:57;;;;;;;14.75;2.08;;;22.40;74.10;;;;;;5091156;28;20054;-65
2021/05/19 13:46:03;;;;;;;14.38;2.47;;;22.40;72.60;;;;;;5078523;28;20072;-66
2021/05/19 13:49:16;;;;;;;9.40;2.10;;;22.30;73.00;;;;;;5091120;28;20047;-62
2021/05/19 13:52:20;;;;;;;11.90;1.92;;;22.30;73.70;;;;;;5089765;28;20035;-67
2021/05/19 13:55:24;;;;;;;24.83;2.72;;;22.30;74.80;;;;;;5090701;28;20073;-65
2021/05/19 13:58:33;;;;;;;8.32;1.95;;;22.40;73.60;;;;;;5090001;28;20051;-66
2021/05/19 14:01:38;;;;;;;18.60;2.83;;;22.40;74.70;;;;;;5091080;28;20036;-65
2021/05/19 14:04:42;;;;;;;18.98;2.38;;;22.40;71.80;;;;;;5090747;28;20055;-64
2021/05/19 14:07:48;;;;;;;12.07;2.75;;;22.30;70.90;;;;;;5090199;28;20039;-66
2021/05/19 14:18:45;;;;;;;17.95;2.13;;;22.40;71.90;;;;;;5085479;28;20502;-63
2021/05/19 14:28:05;;;;;;;15.05;2.30;;;22.10;73.80;;;;;;5089633;28;20494;-67
2021/05/19 14:31:09;;;;;;;20.08;2.80;;;22.00;71.90;;;;;;5090036;28;20411;-66
2021/05/19 14:34:13;;;;;;;17.08;2.85;;;22.00;71.10;;;;;;5049995;28;20400;-66
2021/05/19 15:00:30;;;;;;;9.48;2.35;;;22.60;59.70;;;;;;5052946;28;20037;-63
2021/05/19 15:03:35;;;;;;;8.02;0.98;;;22.60;59.80;;;;;;5052684;28;20416;-62
2021/05/19 15:06:39;;;;;;;6.18;1.50;;;22.60;54.20;;;;;;5052387;28;20048;-64
2021/05/19 15:09:43;;;;;;;12.85;2.55;;;22.50;52.50;;;;;;5053173;28;20044;-64
2021/05/19 15:12:47;;;;;;;5.45;2.20;;;22.60;52.70;;;;;;5053224;28;20051;-63
2021/05/19 15:15:51;;;;;;;7.15;1.77;;;22.60;54.10;;;;;;5040469;28;20033;-63
2021/05/19 15:18:55;;;;;;;10.40;2.33;;;22.60;55.00;;;;;;5052938;28;20056;-62
2021/05/19 15:21:59;;;;;;;7.28;2.30;;;22.60;56.00;;;;;;5052807;28;20036;-62
2021/05/19 15:25:04;;;;;;;9.05;2.00;;;22.50;56.00;;;;;;5051853;28;20404;-64
2021/05/19 15:28:09;;;;;;;12.98;1.90;;;22.50;56.10;;;;;;5052390;28;20488;-61
2021/05/19 15:31:13;;;;;;;11.35;2.00;;;22.50;56.00;;;;;;5053088;28;20048;-62
2021/05/19 15:34:17;;;;;;;15.82;2.80;;;22.40;55.80;;;;;;5052936;28;20052;-65
2021/05/19 15:37:21;;;;;;;6.28;1.60;;;22.30;56.70;;;;;;5052493;28;20056;-63
2021/05/19 15:40:27;;;;;;;13.65;1.77;;;22.30;57.80;;;;;;5052441;28;20040;-63
2021/05/19 15:43:31;;;;;;;7.85;1.77;;;22.30;58.10;;;;;;5052882;28;20044;-63
2021/05/19 15:46:35;;;;;;;5.20;2.10;;;22.30;58.30;;;;;;5052497;28;20045;-63
2021/05/19 15:49:39;;;;;;;9.02;2.33;;;22.30;56.60;;;;;;5052534;28;20029;-62
2021/05/19 15:52:43;;;;;;;6.97;1.88;;;22.30;56.40;;;;;;5052685;28;20047;-65
2021/05/19 15:55:47;;;;;;;16.67;3.90;;;22.30;56.00;;;;;;5052489;28;20037;-64
2021/05/19 15:58:51;;;;;;;9.93;2.33;;;22.40;57.40;;;;;;5052116;28;20064;-63
2021/05/19 16:02:00;;;;;;;12.57;2.13;;;22.40;60.90;;;;;;5052480;28;20041;-64
2021/05/19 16:05:07;;;;;;;16.23;1.92;;;22.40;60.10;;;;;;5052335;28;20036;-63
2021/05/19 16:08:11;;;;;;;13.80;1.83;;;22.30;57.60;;;;;;5051673;28;20214;-61
2021/05/19 16:11:15;;;;;;;27.35;3.20;;;22.20;58.40;;;;;;5052179;28;20044;-62
2021/05/19 16:14:21;;;;;;;21.63;2.70;;;22.20;59.50;;;;;;5052221;28;20360;-63
2021/05/19 16:17:25;;;;;;;9.23;2.42;;;22.20;58.50;;;;;;5051529;28;20480;-66
2021/05/19 16:20:29;;;;;;;10.00;1.90;;;22.20;58.60;;;;;;5052290;28;20046;-64
2021/05/19 16:23:33;;;;;;;16.13;3.25;;;22.20;59.30;;;;;;5051255;28;20044;-64
2021/05/19 16:26:38;;;;;;;18.70;4.20;;;22.10;60.20;;;;;;5051909;28;20072;-63
2021/05/19 16:30:44;;;;;;;22.08;3.13;;;22.00;60.60;;;;;;5051426;28;20048;-62
2021/05/19 16:34:17;;;;;;;14.85;2.50;;;22.00;60.30;;;;;;5084758;28;20046;-61
2021/05/19 16:37:21;;;;;;;15.73;2.70;;;22.00;60.60;;;;;;5091439;28;20055;-61
2021/05/19 16:40:26;;;;;;;13.80;2.45;;;21.90;60.50;;;;;;5090685;28;20035;-62
2021/05/19 16:43:30;;;;;;;14.38;2.80;;;21.90;60.40;;;;;;5090529;28;20039;-62
2021/05/19 16:46:35;;;;;;;9.68;2.45;;;21.80;62.70;;;;;;5091164;28;20035;-63